createdAt,value
2023-04-26T00:00:09.434Z,79.80
2023-04-26T00:02:37.867Z,80.00
2023-04-26T00:05:09.802Z,79.90
2023-04-26T00:07:39.063Z,79.90
2023-04-26T00:10:08.633Z,80.10
2023-04-26T00:12:37.435Z,80.00
2023-04-26T00:15:07.514Z,79.90
2023-04-26T00:17:36.080Z,79.90
2023-04-26T00:20:08.673Z,79.90
2023-04-26T00:22:38.271Z,80.00
2023-04-26T00:25:07.585Z,80.20
2023-04-26T00:27:35.816Z,80.20
2023-04-26T00:30:04.389Z,80.30
2023-04-26T00:32:32.651Z,80.20
2023-04-26T00:35:00.916Z,80.30
2023-04-26T00:37:29.149Z,80.70
2023-04-26T00:39:58.765Z,80.80
2023-04-26T00:42:28.712Z,80.80
2023-04-26T00:44:57.739Z,80.90
2023-04-26T00:47:27.176Z,80.90
2023-04-26T00:49:55.372Z,81.00
2023-04-26T00:52:24.497Z,80.90
2023-04-26T00:54:52.842Z,80.90
2023-04-26T00:57:23.002Z,80.60
2023-04-26T00:59:51.437Z,80.60
2023-04-26T01:02:20.163Z,80.80
2023-04-26T01:04:48.534Z,80.90
2023-04-26T01:07:16.717Z,80.90
2023-04-26T01:09:46.052Z,80.90
2023-04-26T01:12:15.271Z,81.20
2023-04-26T01:14:45.964Z,80.90
2023-04-26T01:17:14.334Z,81.00
2023-04-26T01:19:49.081Z,80.70
2023-04-26T01:22:17.850Z,80.70
2023-04-26T01:24:52.160Z,81.20
2023-04-26T01:27:20.374Z,81.10
2023-04-26T01:29:48.591Z,81.10
2023-04-26T01:32:16.854Z,81.50
2023-04-26T01:34:45.116Z,81.70
2023-04-26T01:37:13.433Z,81.40
2023-04-26T01:39:41.759Z,81.30
2023-04-26T01:42:11.716Z,81.00
2023-04-26T01:44:39.974Z,81.10
2023-04-26T01:47:08.238Z,81.20
2023-04-26T01:49:36.716Z,81.60
2023-04-26T01:52:05.374Z,81.60
2023-04-26T01:54:33.620Z,81.70
2023-04-26T01:57:02.610Z,82.20
2023-04-26T01:59:32.306Z,81.90
2023-04-26T02:02:00.690Z,81.90
2023-04-26T02:04:29.930Z,81.80
2023-04-26T02:06:58.371Z,81.60
2023-04-26T02:09:26.902Z,81.40
2023-04-26T02:11:55.124Z,81.50
2023-04-26T02:14:23.434Z,81.80
2023-04-26T02:16:53.297Z,82.20
2023-04-26T02:19:21.506Z,82.40
2023-04-26T02:21:55.020Z,82.30
2023-04-26T02:24:23.320Z,82.30
2023-04-26T02:26:52.032Z,81.70
2023-04-26T02:29:29.452Z,81.40
2023-04-26T02:32:06.348Z,81.70
2023-04-26T02:34:34.794Z,82.00
2023-04-26T02:37:03.326Z,82.20
2023-04-26T02:39:31.557Z,82.30
2023-04-26T02:41:59.784Z,82.70
2023-04-26T02:44:31.669Z,82.40
2023-04-26T02:46:59.911Z,82.10
2023-04-26T02:49:30.058Z,81.90
2023-04-26T02:51:58.208Z,81.90
2023-04-26T02:54:26.449Z,82.00
2023-04-26T02:56:55.935Z,81.90
2023-04-26T02:59:24.105Z,81.90
2023-04-26T03:01:52.338Z,82.10
2023-04-26T03:04:20.770Z,82.40
2023-04-26T03:06:50.352Z,82.80
2023-04-26T03:09:18.964Z,83.00
2023-04-26T03:11:49.607Z,82.90
2023-04-26T03:14:18.478Z,83.00
2023-04-26T03:16:48.398Z,83.10
2023-04-26T03:19:16.832Z,83.10
2023-04-26T03:21:45.054Z,83.10
2023-04-26T03:24:14.729Z,83.00
2023-04-26T03:26:43.008Z,83.00
2023-04-26T03:29:12.418Z,83.10
2023-04-26T03:31:40.814Z,83.20
2023-04-26T03:34:09.318Z,82.60
2023-04-26T03:36:38.208Z,82.50
2023-04-26T03:39:06.770Z,82.60
2023-04-26T03:41:39.590Z,82.40
2023-04-26T03:44:07.993Z,82.60
2023-04-26T03:46:36.171Z,82.60
2023-04-26T03:49:04.454Z,82.90
2023-04-26T03:51:32.825Z,83.00
2023-04-26T03:54:01.038Z,83.10
2023-04-26T03:56:29.255Z,83.20
2023-04-26T03:58:58.821Z,83.10
2023-04-26T04:01:28.520Z,83.00
2023-04-26T04:03:56.945Z,82.80
2023-04-26T04:06:25.644Z,82.60
2023-04-26T04:08:54.001Z,82.80
2023-04-26T04:11:23.321Z,83.10
2023-04-26T04:13:51.520Z,83.50
2023-04-26T04:16:21.872Z,83.80
2023-04-26T04:18:50.651Z,84.10
2023-04-26T04:21:19.055Z,84.20
2023-04-26T04:23:47.748Z,84.20
2023-04-26T04:26:16.243Z,84.30
2023-04-26T04:28:45.559Z,84.30
2023-04-26T04:31:15.001Z,84.30
2023-04-26T04:33:44.618Z,84.90
2023-04-26T04:36:13.144Z,84.80
2023-04-26T04:38:41.391Z,84.80
2023-04-26T04:41:10.456Z,85.00
2023-04-26T04:43:38.711Z,84.90
2023-04-26T04:46:07.049Z,85.30
2023-04-26T04:48:35.600Z,85.00
2023-04-26T04:51:05.265Z,85.10
2023-04-26T04:53:33.782Z,85.30
2023-04-26T04:56:02.004Z,85.30
2023-04-26T04:58:30.239Z,85.50
2023-04-26T05:01:01.275Z,85.40
2023-04-26T05:03:30.070Z,85.20
2023-04-26T05:05:58.390Z,85.60
2023-04-26T05:08:27.995Z,85.40
2023-04-26T05:10:56.776Z,85.50
2023-04-26T05:13:25.053Z,85.80
2023-04-26T05:15:53.358Z,85.90
2023-04-26T05:18:22.004Z,85.60
2023-04-26T05:20:50.209Z,85.30
2023-04-26T05:23:18.377Z,85.20
2023-04-26T05:25:47.953Z,85.00
2023-04-26T05:28:16.196Z,84.90
2023-04-26T05:30:44.709Z,84.30
2023-04-26T05:33:12.962Z,83.50
2023-04-26T05:35:41.344Z,83.20
2023-04-26T05:38:09.541Z,83.10
2023-04-26T05:40:37.794Z,83.40
2023-04-26T05:43:07.480Z,83.60
2023-04-26T05:45:35.705Z,82.60
2023-04-26T05:48:04.020Z,82.30
2023-04-26T05:50:32.760Z,82.50
2023-04-26T05:53:00.977Z,82.30
2023-04-26T05:55:29.140Z,82.30
2023-04-26T05:57:58.282Z,82.10
2023-04-26T06:00:28.296Z,82.00
2023-04-26T06:02:56.769Z,82.00
2023-04-26T06:05:25.311Z,81.40
2023-04-26T06:07:54.399Z,81.10
2023-04-26T06:10:22.836Z,81.00
2023-04-26T06:12:51.122Z,80.70
2023-04-26T06:15:19.563Z,80.60
2023-04-26T06:17:49.179Z,80.70
2023-04-26T06:20:17.384Z,81.00
2023-04-26T06:22:45.723Z,80.60
2023-04-26T06:25:14.408Z,80.50
2023-04-26T06:27:42.619Z,80.40
2023-04-26T06:30:11.827Z,80.10
2023-04-26T06:32:42.004Z,80.20
2023-04-26T06:35:11.984Z,80.10
2023-04-26T06:37:40.710Z,79.40
2023-04-26T06:40:11.172Z,79.30
2023-04-26T06:42:39.648Z,78.70
2023-04-26T06:45:09.754Z,78.30
2023-04-26T06:47:38.014Z,78.80
2023-04-26T06:50:07.395Z,77.80
2023-04-26T06:52:37.129Z,77.70
2023-04-26T06:55:06.057Z,77.50
2023-04-26T06:57:34.450Z,77.70
2023-04-26T07:00:03.928Z,77.90
2023-04-26T07:02:32.303Z,77.20
2023-04-26T07:05:00.956Z,76.90
2023-04-26T07:07:29.279Z,76.20
2023-04-26T07:09:59.123Z,75.70
2023-04-26T07:12:27.665Z,75.80
2023-04-26T07:14:56.458Z,76.30
2023-04-26T07:17:24.628Z,76.50
2023-04-26T07:19:53.968Z,76.20
2023-04-26T07:22:23.668Z,76.10
2023-04-26T07:24:51.929Z,75.70
2023-04-26T07:27:24.864Z,75.10
2023-04-26T07:29:56.025Z,74.60
2023-04-26T07:32:24.445Z,75.10
2023-04-26T07:34:52.821Z,74.90
2023-04-26T07:37:20.978Z,75.20
2023-04-26T07:39:49.265Z,75.00
2023-04-26T07:42:17.563Z,75.20
2023-04-26T07:44:49.790Z,74.70
2023-04-26T07:47:18.153Z,74.70
2023-04-26T07:49:47.782Z,74.10
2023-04-26T07:52:16.218Z,74.10
2023-04-26T07:54:47.770Z,73.50
2023-04-26T07:57:16.367Z,72.90
2023-04-26T07:59:45.930Z,72.50
2023-04-26T08:02:14.247Z,72.00
2023-04-26T08:04:52.748Z,72.40
2023-04-26T08:07:21.547Z,72.30
2023-04-26T08:09:50.220Z,72.30
2023-04-26T08:12:18.518Z,71.00
2023-04-26T08:14:48.121Z,70.70
2023-04-26T08:17:16.309Z,69.50
2023-04-26T08:19:44.575Z,70.30
2023-04-26T08:22:12.869Z,70.00
2023-04-26T08:24:41.105Z,70.10
2023-04-26T08:27:09.461Z,70.00
2023-04-26T08:29:37.685Z,70.10
2023-04-26T08:32:07.615Z,68.00
2023-04-26T08:34:36.115Z,66.80
2023-04-26T08:37:05.122Z,66.70
2023-04-26T08:39:35.441Z,66.50
2023-04-26T08:42:14.722Z,67.00
2023-04-26T08:44:44.727Z,66.10
2023-04-26T08:47:19.757Z,65.20
2023-04-26T08:49:50.395Z,66.40
2023-04-26T08:52:23.035Z,66.50
2023-04-26T08:54:54.680Z,66.50
2023-04-26T08:57:23.771Z,65.80
2023-04-26T08:59:52.839Z,66.10
2023-04-26T09:02:24.674Z,63.70
2023-04-26T09:04:53.564Z,64.20
2023-04-26T09:07:32.190Z,64.10
2023-04-26T09:10:01.205Z,61.90
2023-04-26T09:12:29.576Z,60.70
2023-04-26T09:14:57.909Z,61.40
2023-04-26T09:17:31.946Z,62.00
2023-04-26T09:20:01.239Z,61.20
2023-04-26T09:22:31.736Z,61.40
2023-04-26T09:25:00.562Z,61.60
2023-04-26T09:27:36.998Z,62.30
2023-04-26T09:30:09.624Z,62.30
2023-04-26T09:32:52.977Z,61.30
2023-04-26T09:35:30.370Z,61.90
2023-04-26T09:38:06.507Z,62.30
2023-04-26T09:40:41.615Z,61.80
2023-04-26T09:43:12.832Z,61.80
2023-04-26T09:45:51.097Z,62.70
2023-04-26T09:48:23.629Z,63.00
2023-04-26T09:50:54.540Z,61.00
2023-04-26T09:53:32.034Z,60.30
2023-04-26T09:56:09.361Z,60.90
2023-04-26T09:58:39.959Z,61.00
2023-04-26T10:01:10.121Z,62.10
2023-04-26T10:03:40.285Z,61.60
2023-04-26T10:06:09.229Z,62.60
2023-04-26T10:08:38.630Z,61.80
2023-04-26T10:11:08.424Z,61.80
2023-04-26T10:13:36.762Z,62.20
2023-04-26T10:16:06.840Z,60.60
2023-04-26T10:18:35.755Z,58.70
2023-04-26T10:21:11.637Z,59.20
2023-04-26T10:23:40.146Z,60.20
2023-04-26T10:26:08.507Z,59.60
2023-04-26T10:29:02.075Z,59.90
2023-04-26T10:32:06.352Z,58.30
2023-04-26T10:34:37.059Z,57.60
2023-04-26T10:37:14.376Z,57.60
2023-04-26T10:39:43.901Z,53.20
2023-04-26T10:42:27.605Z,54.10
2023-04-26T10:44:56.893Z,56.80
2023-04-26T10:47:31.651Z,55.20
2023-04-26T10:50:09.337Z,56.50
2023-04-26T10:53:06.843Z,54.40
2023-04-26T10:55:41.874Z,56.50
2023-04-26T10:58:28.653Z,55.90
2023-04-26T11:01:07.130Z,58.20
2023-04-26T11:03:36.203Z,55.10
2023-04-26T11:06:09.632Z,56.60
2023-04-26T11:08:39.399Z,55.80
2023-04-26T11:11:11.163Z,56.50
2023-04-26T11:13:41.011Z,55.70
2023-04-26T11:16:10.996Z,55.20
2023-04-26T11:18:42.901Z,54.50
2023-04-26T11:21:12.788Z,54.10
2023-04-26T11:23:44.011Z,53.80
2023-04-26T11:26:12.558Z,56.60
2023-04-26T11:28:41.156Z,54.60
2023-04-26T11:31:09.630Z,53.90
2023-04-26T11:33:37.977Z,52.20
2023-04-26T11:36:07.216Z,52.00
2023-04-26T11:38:37.199Z,52.90
2023-04-26T11:41:07.290Z,50.70
2023-04-26T11:43:39.924Z,51.50
2023-04-26T11:46:10.109Z,51.70
2023-04-26T11:48:40.493Z,50.80
2023-04-26T11:51:10.557Z,51.50
2023-04-26T11:53:40.489Z,50.70
2023-04-26T11:56:21.906Z,50.50
2023-04-26T11:58:52.779Z,51.50
2023-04-26T12:01:23.582Z,50.80
2023-04-26T12:03:53.869Z,49.70
2023-04-26T12:06:27.476Z,51.40
2023-04-26T12:08:57.968Z,51.40
2023-04-26T12:11:28.224Z,51.20
2023-04-26T12:14:00.458Z,51.60
2023-04-26T12:16:28.913Z,52.20
2023-04-26T12:18:57.737Z,52.00
2023-04-26T12:21:30.449Z,51.40
2023-04-26T12:23:59.115Z,51.90
2023-04-26T12:29:20.729Z,51.50
2023-04-26T12:31:49.150Z,50.20
2023-04-26T12:34:17.372Z,49.20
2023-04-26T12:36:45.879Z,48.30
2023-04-26T12:39:15.705Z,50.60
2023-04-26T12:41:44.225Z,49.80
2023-04-26T12:44:14.361Z,48.90
2023-04-26T12:46:44.092Z,47.30
2023-04-26T12:49:12.598Z,47.90
2023-04-26T12:51:40.841Z,50.00
2023-04-26T12:54:09.360Z,50.90
2023-04-26T12:56:40.696Z,48.10
2023-04-26T12:59:09.008Z,46.70
2023-04-26T13:01:37.365Z,46.60
2023-04-26T13:04:07.318Z,46.90
2023-04-26T13:06:36.487Z,46.20
2023-04-26T13:09:07.890Z,48.40
2023-04-26T13:11:39.350Z,47.90
2023-04-26T13:14:07.899Z,47.20
2023-04-26T13:16:36.457Z,47.20
2023-04-26T13:19:06.408Z,48.00
2023-04-26T13:21:34.610Z,49.30
2023-04-26T13:24:02.840Z,48.80
2023-04-26T13:26:31.055Z,48.20
2023-04-26T13:28:59.614Z,48.00
2023-04-26T13:31:28.099Z,49.40
2023-04-26T13:33:56.450Z,47.80
2023-04-26T13:36:26.190Z,46.00
2023-04-26T13:38:54.500Z,46.90
2023-04-26T13:41:23.809Z,46.00
2023-04-26T13:43:52.112Z,48.00
2023-04-26T13:46:20.833Z,46.80
2023-04-26T13:48:49.101Z,48.60
2023-04-26T13:51:17.459Z,47.70
2023-04-26T13:53:47.046Z,48.20
2023-04-26T13:56:15.316Z,48.50
2023-04-26T13:58:44.883Z,49.10
2023-04-26T14:01:14.030Z,51.70
2023-04-26T14:03:43.032Z,47.40
2023-04-26T14:06:12.361Z,49.00
2023-04-26T14:08:40.815Z,50.20
2023-04-26T14:11:11.975Z,48.30
2023-04-26T14:13:40.399Z,48.80
2023-04-26T14:16:11.079Z,50.10
2023-04-26T14:18:44.919Z,51.10
2023-04-26T14:21:13.302Z,51.50
2023-04-26T14:23:41.943Z,48.80
2023-04-26T14:26:12.586Z,49.10
2023-04-26T14:28:41.203Z,48.50
2023-04-26T14:31:09.635Z,48.90
2023-04-26T14:33:38.345Z,47.90
2023-04-26T14:36:08.402Z,48.30
2023-04-26T14:38:36.830Z,48.20
2023-04-26T14:41:05.205Z,46.70
2023-04-26T14:43:34.831Z,49.30
2023-04-26T14:46:03.454Z,48.70
2023-04-26T14:48:31.854Z,47.10
2023-04-26T14:51:00.611Z,48.20
2023-04-26T14:53:28.828Z,49.70
2023-04-26T14:55:57.875Z,49.60
2023-04-26T14:58:26.480Z,48.20
2023-04-26T15:00:56.361Z,48.10
2023-04-26T15:03:24.693Z,49.50
2023-04-26T15:05:55.329Z,48.40
2023-04-26T15:08:23.574Z,47.70
2023-04-26T15:10:52.363Z,47.80
2023-04-26T15:13:20.712Z,48.60
2023-04-26T15:15:49.052Z,48.60
2023-04-26T15:18:19.537Z,46.60
2023-04-26T15:20:47.825Z,49.60
2023-04-26T15:23:16.243Z,49.00
2023-04-26T15:25:44.630Z,49.80
2023-04-26T15:28:12.895Z,50.40
2023-04-26T15:30:41.216Z,50.40
2023-04-26T15:33:10.298Z,49.90
2023-04-26T15:35:40.082Z,51.40
2023-04-26T15:38:08.261Z,49.40
2023-04-26T15:40:38.116Z,50.70
2023-04-26T15:43:06.544Z,49.00
2023-04-26T15:45:36.732Z,49.10
2023-04-26T15:48:05.745Z,49.70
2023-04-26T15:50:34.044Z,50.70
2023-04-26T15:53:03.609Z,49.60
2023-04-26T15:55:34.114Z,51.10
2023-04-26T15:58:02.477Z,51.00
2023-04-26T16:00:32.251Z,50.30
2023-04-26T16:03:00.681Z,50.60
2023-04-26T16:05:29.103Z,50.00
2023-04-26T16:07:57.309Z,50.40
2023-04-26T16:10:27.174Z,49.40
2023-04-26T16:12:55.439Z,50.50
2023-04-26T16:15:23.814Z,50.30
2023-04-26T16:17:52.135Z,49.30
2023-04-26T16:20:20.529Z,50.30
2023-04-26T16:22:49.851Z,50.10
2023-04-26T16:25:18.059Z,50.40
2023-04-26T16:27:47.711Z,50.80
2023-04-26T16:30:16.136Z,51.30
2023-04-26T16:32:44.371Z,52.30
2023-04-26T16:35:12.717Z,52.70
2023-04-26T16:37:41.787Z,52.20
2023-04-26T16:40:11.568Z,51.50
2023-04-26T16:42:43.267Z,50.80
2023-04-26T16:45:16.338Z,53.00
2023-04-26T16:47:45.450Z,53.40
2023-04-26T16:50:13.721Z,53.40
2023-04-26T16:52:41.984Z,53.70
2023-04-26T16:55:10.755Z,54.60
2023-04-26T16:57:39.014Z,52.90
2023-04-26T17:00:11.459Z,54.00
2023-04-26T17:02:42.109Z,55.30
2023-04-26T17:05:11.243Z,53.70
2023-04-26T17:07:39.574Z,55.00
2023-04-26T17:10:09.036Z,53.30
2023-04-26T17:12:37.273Z,54.70
2023-04-26T17:15:06.809Z,53.90
2023-04-26T17:17:35.135Z,54.20
2023-04-26T17:20:06.459Z,53.80
2023-04-26T17:22:34.726Z,54.50
2023-04-26T17:25:04.862Z,55.10
2023-04-26T17:27:33.357Z,54.40
2023-04-26T17:30:01.913Z,53.50
2023-04-26T17:32:30.739Z,53.70
2023-04-26T17:34:58.976Z,54.30
2023-04-26T17:37:28.625Z,54.30
2023-04-26T17:39:57.004Z,54.30
2023-04-26T17:42:25.366Z,54.80
2023-04-26T17:44:53.597Z,53.40
2023-04-26T17:47:21.927Z,54.20
2023-04-26T17:49:50.253Z,56.20
2023-04-26T17:52:18.698Z,54.70
2023-04-26T17:54:48.445Z,55.40
2023-04-26T17:57:18.081Z,54.90
2023-04-26T17:59:46.270Z,56.10
2023-04-26T18:02:14.577Z,56.30
2023-04-26T18:04:43.158Z,56.20
2023-04-26T18:07:12.200Z,55.40
2023-04-26T18:09:40.602Z,57.20
2023-04-26T18:12:10.324Z,56.40
2023-04-26T18:14:44.367Z,54.40
2023-04-26T18:17:13.856Z,54.70
2023-04-26T18:19:42.583Z,54.90
2023-04-26T18:22:10.924Z,56.50
2023-04-26T18:24:39.615Z,55.40
2023-04-26T18:27:11.674Z,54.60
2023-04-26T18:29:39.931Z,54.80
2023-04-26T18:32:08.163Z,55.10
2023-04-26T18:34:36.389Z,55.10
2023-04-26T18:37:04.812Z,55.20
2023-04-26T18:39:33.092Z,56.60
2023-04-26T18:42:01.939Z,55.30
2023-04-26T18:44:31.679Z,56.20
2023-04-26T18:46:59.964Z,56.80
2023-04-26T18:49:28.429Z,57.00
2023-04-26T18:51:57.243Z,56.90
2023-04-26T18:54:26.293Z,56.40
2023-04-26T18:56:54.565Z,57.20
2023-04-26T18:59:22.825Z,56.90
2023-04-26T19:01:52.489Z,58.20
2023-04-26T19:04:21.892Z,57.10
2023-04-26T19:06:50.340Z,57.80
2023-04-26T19:09:19.089Z,58.20
2023-04-26T19:11:47.365Z,58.20
2023-04-26T19:14:15.723Z,58.70
2023-04-26T19:16:44.005Z,58.30
2023-04-26T19:19:13.835Z,58.60
2023-04-26T19:21:42.418Z,59.30
2023-04-26T19:24:10.716Z,60.50
2023-04-26T19:26:39.008Z,61.00
2023-04-26T19:29:07.342Z,60.60
2023-04-26T19:31:35.759Z,61.10
2023-04-26T19:34:04.049Z,60.70
2023-04-26T19:36:34.762Z,60.60
2023-04-26T19:39:03.505Z,61.40
2023-04-26T19:41:31.907Z,61.60
2023-04-26T19:44:00.404Z,61.60
2023-04-26T19:46:28.695Z,61.90
2023-04-26T19:48:57.047Z,62.20
2023-04-26T19:51:25.517Z,62.40
2023-04-26T19:53:55.195Z,62.30
2023-04-26T19:56:24.070Z,62.20
2023-04-26T19:58:52.374Z,62.80
2023-04-26T20:01:20.656Z,62.70
2023-04-26T20:03:49.131Z,63.10
2023-04-26T20:06:17.589Z,62.50
2023-04-26T20:08:45.842Z,62.60
2023-04-26T20:11:16.832Z,62.00
2023-04-26T20:13:46.348Z,63.30
2023-04-26T20:16:14.703Z,62.80
2023-04-26T20:18:43.574Z,62.50
2023-04-26T20:21:11.954Z,63.40
2023-04-26T20:23:40.218Z,63.40
2023-04-26T20:26:08.460Z,63.30
2023-04-26T20:28:39.979Z,63.50
2023-04-26T20:31:08.492Z,64.30
2023-04-26T20:33:36.702Z,64.10
2023-04-26T20:36:05.259Z,64.20
2023-04-26T20:38:34.396Z,64.10
2023-04-26T20:41:02.712Z,64.40
2023-04-26T20:43:30.969Z,64.10
2023-04-26T20:46:00.549Z,64.00
2023-04-26T20:48:28.830Z,64.40
2023-04-26T20:50:58.677Z,64.60
2023-04-26T20:53:27.186Z,64.80
2023-04-26T20:55:55.609Z,65.10
2023-04-26T20:58:24.270Z,64.60
2023-04-26T21:00:55.867Z,65.10
2023-04-26T21:03:25.765Z,65.50
2023-04-26T21:05:54.454Z,65.70
2023-04-26T21:08:22.701Z,66.60
2023-04-26T21:10:50.961Z,66.70
2023-04-26T21:13:20.346Z,67.90
2023-04-26T21:15:48.717Z,67.60
2023-04-26T21:18:17.209Z,67.50
2023-04-26T21:20:46.816Z,67.80
2023-04-26T21:23:15.563Z,67.40
2023-04-26T21:25:47.166Z,67.80
2023-04-26T21:28:15.768Z,68.10
2023-04-26T21:30:44.071Z,68.00
2023-04-26T21:33:12.589Z,68.70
2023-04-26T21:35:40.939Z,68.90
2023-04-26T21:38:10.575Z,69.30
2023-04-26T21:40:39.025Z,69.50
2023-04-26T21:43:07.256Z,70.20
2023-04-26T21:45:35.952Z,70.20
2023-04-26T21:48:04.802Z,71.20
2023-04-26T21:50:33.101Z,71.50
2023-04-26T21:53:01.438Z,71.70
2023-04-26T21:55:31.042Z,72.10
2023-04-26T21:57:59.325Z,72.60
2023-04-26T22:00:28.160Z,72.60
2023-04-26T22:02:56.506Z,73.30
2023-04-26T22:05:26.003Z,72.80
2023-04-26T22:07:54.543Z,72.30
2023-04-26T22:10:22.745Z,72.10
2023-04-26T22:12:52.966Z,71.90
2023-04-26T22:15:21.356Z,71.70
2023-04-26T22:17:49.748Z,71.80
2023-04-26T22:20:18.231Z,72.30
2023-04-26T22:22:46.678Z,72.60
2023-04-26T22:25:14.928Z,73.50
2023-04-26T22:27:43.169Z,74.20
2023-04-26T22:30:24.590Z,74.60
2023-04-26T22:32:57.323Z,74.60
2023-04-26T22:35:27.541Z,74.50
2023-04-26T22:37:56.300Z,74.20
2023-04-26T22:40:24.528Z,74.90
2023-04-26T22:42:52.809Z,74.70
2023-04-26T22:45:22.821Z,74.00
2023-04-26T22:47:51.388Z,74.10
2023-04-26T22:50:19.658Z,74.60
2023-04-26T22:52:47.878Z,75.60
2023-04-26T22:55:16.091Z,76.10
2023-04-26T22:57:44.217Z,75.80
2023-04-26T23:00:15.962Z,75.30
2023-04-26T23:02:45.675Z,75.90
2023-04-26T23:05:14.198Z,76.20
2023-04-26T23:07:43.240Z,76.40
2023-04-26T23:10:12.169Z,76.60
2023-04-26T23:12:40.694Z,77.10
2023-04-26T23:15:10.312Z,77.10
2023-04-26T23:17:38.883Z,77.00
2023-04-26T23:20:12.746Z,77.10
2023-04-26T23:22:41.482Z,76.90
2023-04-26T23:25:10.889Z,76.90
2023-04-26T23:27:39.716Z,76.60
2023-04-26T23:30:09.683Z,76.30
2023-04-26T23:32:38.061Z,76.80
2023-04-26T23:35:09.108Z,76.10
2023-04-26T23:37:37.774Z,76.90
2023-04-26T23:40:09.032Z,75.80
2023-04-26T23:42:37.562Z,76.30
2023-04-26T23:45:07.798Z,76.10
2023-04-26T23:47:36.223Z,76.70
2023-04-26T23:50:04.831Z,77.10
2023-04-26T23:52:34.525Z,77.70
2023-04-26T23:55:03.361Z,77.50
2023-04-26T23:57:32.229Z,77.60
